createdAt,value
2023-06-11T00:01:46.004Z,20.58
2023-06-11T00:04:50.812Z,20.46
2023-06-11T00:07:53.367Z,20.49
2023-06-11T00:10:55.862Z,20.69
2023-06-11T00:13:58.299Z,20.60
2023-06-11T00:17:00.704Z,20.62
2023-06-11T00:20:04.939Z,20.64
2023-06-11T00:23:07.767Z,20.63
2023-06-11T00:26:10.806Z,20.62
2023-06-11T00:29:16.330Z,20.70
2023-06-11T00:32:18.766Z,20.49
2023-06-11T00:35:21.805Z,20.68
2023-06-11T00:38:24.478Z,20.58
2023-06-11T00:41:31.054Z,20.62
2023-06-11T00:44:35.203Z,20.40
2023-06-11T00:47:40.436Z,20.45
2023-06-11T00:50:49.482Z,20.46
2023-06-11T00:53:55.590Z,20.41
2023-06-11T00:56:58.364Z,20.36
2023-06-11T01:00:01.835Z,20.68
2023-06-11T01:03:10.044Z,20.69
2023-06-11T01:06:18.363Z,20.69
2023-06-11T01:09:22.275Z,20.47
2023-06-11T01:12:24.913Z,20.45
2023-06-11T01:15:27.549Z,20.57
2023-06-11T01:18:35.182Z,20.55
2023-06-11T01:21:46.356Z,20.69
2023-06-11T01:24:54.647Z,20.69
2023-06-11T01:28:04.277Z,20.55
2023-06-11T01:31:13.138Z,20.63
2023-06-11T01:34:16.103Z,20.58
2023-06-11T01:37:18.636Z,20.47
2023-06-11T01:40:26.097Z,20.68
2023-06-11T01:43:30.795Z,20.49
2023-06-11T01:46:33.480Z,20.46
2023-06-11T01:49:36.259Z,20.50
2023-06-11T01:52:39.685Z,20.60
2023-06-11T01:55:43.860Z,20.47
2023-06-11T01:58:46.859Z,20.48
2023-06-11T02:01:54.534Z,20.57
2023-06-11T02:04:57.240Z,20.44
2023-06-11T02:07:59.772Z,20.54
2023-06-11T02:11:03.910Z,20.44
2023-06-11T02:14:06.452Z,20.49
2023-06-11T02:17:09.489Z,20.46
2023-06-11T02:20:15.115Z,20.61
2023-06-11T02:23:17.589Z,20.66
2023-06-11T02:26:20.165Z,20.42
2023-06-11T02:29:22.670Z,20.46
2023-06-11T02:32:25.133Z,20.42
2023-06-11T02:35:27.603Z,20.54
2023-06-11T02:38:30.081Z,20.39
2023-06-11T02:41:32.549Z,20.42
2023-06-11T02:44:36.024Z,20.44
2023-06-11T02:47:38.479Z,20.47
2023-06-11T02:50:40.963Z,20.65
2023-06-11T02:53:43.759Z,20.42
2023-06-11T02:56:46.358Z,20.59
2023-06-11T02:59:48.876Z,20.51
2023-06-11T03:02:51.541Z,20.49
2023-06-11T03:06:01.883Z,20.49
2023-06-11T03:09:05.025Z,20.13
2023-06-11T03:12:08.262Z,20.40
2023-06-11T03:15:11.550Z,20.63
2023-06-11T03:18:14.665Z,20.40
2023-06-11T03:21:18.937Z,20.42
2023-06-11T03:24:21.622Z,20.42
2023-06-11T03:27:25.973Z,20.48
2023-06-11T03:30:28.447Z,20.55
2023-06-11T03:33:31.002Z,20.64
2023-06-11T03:36:33.484Z,20.50
2023-06-11T03:39:37.081Z,20.48
2023-06-11T03:42:39.771Z,20.55
2023-06-11T03:45:42.275Z,20.53
2023-06-11T03:48:44.762Z,20.48
2023-06-11T03:51:47.318Z,20.51
2023-06-11T03:54:50.694Z,20.53
2023-06-11T03:57:53.247Z,20.78
2023-06-11T04:00:55.984Z,20.57
2023-06-11T04:03:59.304Z,20.55
2023-06-11T04:07:01.832Z,20.60
2023-06-11T04:10:04.545Z,20.63
2023-06-11T04:13:08.563Z,20.52
2023-06-11T04:16:11.265Z,20.72
2023-06-11T04:19:13.838Z,20.58
2023-06-11T04:22:17.422Z,20.67
2023-06-11T04:25:20.451Z,20.63
2023-06-11T04:28:24.445Z,20.66
2023-06-11T04:31:28.054Z,20.90
2023-06-11T04:34:32.227Z,20.75
2023-06-11T04:37:41.333Z,20.75
2023-06-11T04:40:51.989Z,20.73
2023-06-11T04:43:55.305Z,20.82
2023-06-11T04:46:58.318Z,21.01
2023-06-11T04:50:05.552Z,21.05
2023-06-11T04:53:09.237Z,21.06
2023-06-11T04:56:12.196Z,20.93
2023-06-11T04:59:16.368Z,21.16
2023-06-11T05:02:20.000Z,20.99
2023-06-11T05:05:22.699Z,20.99
2023-06-11T05:08:26.791Z,21.09
2023-06-11T05:11:30.563Z,21.21
2023-06-11T05:14:33.051Z,21.24
2023-06-11T05:17:35.884Z,21.17
2023-06-11T05:20:38.591Z,21.19
2023-06-11T05:23:41.204Z,21.25
2023-06-11T05:26:45.798Z,21.24
2023-06-11T05:29:49.093Z,21.27
2023-06-11T05:32:54.507Z,21.53
2023-06-11T05:35:57.038Z,21.18
2023-06-11T05:39:00.104Z,21.35
2023-06-11T05:42:02.684Z,21.34
2023-06-11T05:45:07.532Z,21.40
2023-06-11T05:48:10.229Z,21.39
2023-06-11T05:51:14.391Z,21.43
2023-06-11T05:54:16.990Z,21.48
2023-06-11T05:57:25.726Z,21.59
2023-06-11T06:00:31.721Z,21.75
2023-06-11T06:03:35.260Z,22.03
2023-06-11T06:06:38.965Z,21.89
2023-06-11T06:09:41.459Z,22.05
2023-06-11T06:12:43.929Z,22.16
2023-06-11T06:15:47.621Z,22.28
2023-06-11T06:18:50.202Z,22.21
2023-06-11T06:21:52.696Z,22.36
2023-06-11T06:24:57.981Z,22.49
2023-06-11T06:28:03.399Z,22.56
2023-06-11T06:31:09.111Z,22.77
2023-06-11T06:34:13.447Z,23.19
2023-06-11T06:37:16.353Z,23.18
2023-06-11T06:40:21.506Z,23.54
2023-06-11T06:43:24.170Z,23.77
2023-06-11T06:46:31.664Z,23.85
2023-06-11T06:49:35.088Z,23.90
2023-06-11T06:52:37.559Z,24.17
2023-06-11T06:55:40.120Z,24.28
2023-06-11T06:58:44.813Z,24.44
2023-06-11T07:01:48.383Z,24.60
2023-06-11T07:04:52.611Z,24.98
2023-06-11T07:07:55.273Z,24.95
2023-06-11T07:10:58.932Z,25.30
2023-06-11T07:14:14.758Z,25.35
2023-06-11T07:17:19.530Z,25.36
2023-06-11T07:20:23.896Z,25.29
2023-06-11T07:23:26.675Z,25.48
2023-06-11T07:26:29.937Z,25.25
2023-06-11T07:29:34.136Z,25.43
2023-06-11T07:32:37.429Z,25.04
2023-06-11T07:35:40.279Z,25.30
2023-06-11T07:38:45.212Z,25.34
2023-06-11T07:41:49.279Z,25.46
2023-06-11T07:44:51.929Z,25.28
2023-06-11T07:47:54.562Z,25.40
2023-06-11T07:50:57.887Z,25.30
2023-06-11T07:54:02.162Z,25.27
2023-06-11T07:57:04.699Z,25.44
2023-06-11T08:00:14.455Z,25.45
2023-06-11T08:03:18.228Z,25.32
2023-06-11T08:06:21.950Z,25.12
2023-06-11T08:09:24.500Z,25.14
2023-06-11T08:12:27.063Z,24.90
2023-06-11T08:15:30.854Z,24.84
2023-06-11T08:18:33.411Z,24.77
2023-06-11T08:21:36.634Z,24.61
2023-06-11T08:24:39.094Z,24.52
2023-06-11T08:27:41.752Z,24.26
2023-06-11T08:30:44.249Z,24.32
2023-06-11T08:33:46.754Z,24.08
2023-06-11T08:36:49.242Z,24.05
2023-06-11T08:39:51.743Z,23.96
2023-06-11T08:42:54.489Z,24.02
2023-06-11T08:45:57.167Z,24.01
2023-06-11T08:49:03.902Z,24.06
2023-06-11T08:52:06.779Z,23.60
2023-06-11T08:55:09.996Z,23.65
2023-06-11T08:58:13.675Z,23.81
2023-06-11T09:01:16.688Z,23.93
2023-06-11T09:04:25.220Z,23.66
2023-06-11T09:07:27.749Z,23.67
2023-06-11T09:10:30.228Z,23.60
2023-06-11T09:13:33.266Z,23.56
2023-06-11T09:16:41.100Z,23.57
2023-06-11T09:19:44.005Z,23.69
2023-06-11T09:22:47.246Z,23.42
2023-06-11T09:25:49.682Z,23.37
2023-06-11T09:28:54.572Z,23.44
2023-06-11T09:32:31.730Z,23.40
2023-06-11T09:35:33.413Z,23.37
2023-06-11T09:38:36.013Z,23.25
2023-06-11T09:41:47.807Z,23.32
2023-06-11T09:44:50.949Z,23.31
2023-06-11T09:47:53.929Z,23.33
2023-06-11T09:50:56.460Z,23.21
2023-06-11T09:53:59.540Z,23.20
2023-06-11T09:57:02.308Z,23.17
2023-06-11T10:00:10.864Z,23.20
2023-06-11T10:03:13.842Z,23.21
2023-06-11T10:06:20.364Z,23.28
2023-06-11T10:09:23.151Z,23.17
2023-06-11T10:12:25.613Z,23.23
2023-06-11T10:15:31.810Z,23.09
2023-06-11T10:18:34.805Z,23.15
2023-06-11T10:21:42.514Z,23.06
2023-06-11T10:24:44.949Z,23.06
2023-06-11T10:27:47.966Z,22.98
2023-06-11T10:30:54.620Z,23.01
2023-06-11T10:34:07.134Z,23.08
2023-06-11T10:37:10.816Z,23.06
2023-06-11T10:40:13.737Z,22.81
2023-06-11T10:43:18.505Z,23.20
2023-06-11T10:46:21.108Z,23.00
2023-06-11T10:49:27.061Z,22.76
2023-06-11T10:52:29.575Z,22.96
2023-06-11T10:55:33.984Z,23.15
2023-06-11T10:58:39.504Z,23.03
2023-06-11T11:01:42.080Z,22.89
2023-06-11T11:04:51.661Z,23.10
2023-06-11T11:07:55.366Z,22.89
2023-06-11T11:11:01.070Z,23.09
2023-06-11T11:14:04.858Z,22.99
2023-06-11T11:17:07.494Z,22.90
2023-06-11T11:20:11.346Z,23.07
2023-06-11T11:23:13.883Z,23.06
2023-06-11T11:26:18.743Z,22.93
2023-06-11T11:29:21.195Z,22.92
2023-06-11T11:32:25.229Z,22.78
2023-06-11T11:35:29.858Z,22.90
2023-06-11T11:38:38.983Z,22.78
2023-06-11T11:41:51.830Z,22.90
2023-06-11T11:44:58.587Z,22.77
2023-06-11T11:48:05.050Z,22.80
2023-06-11T11:51:08.582Z,22.80
2023-06-11T11:54:14.854Z,22.77
2023-06-11T11:57:21.365Z,22.72
2023-06-11T12:00:27.284Z,22.76
2023-06-11T12:03:29.887Z,22.74
2023-06-11T12:06:32.605Z,22.72
2023-06-11T12:09:38.034Z,22.69
2023-06-11T12:12:40.602Z,22.77
2023-06-11T12:15:43.064Z,22.73
2023-06-11T12:18:46.651Z,22.71
2023-06-11T12:21:50.206Z,22.85
2023-06-11T12:24:52.673Z,22.65
2023-06-11T12:27:55.805Z,22.61
2023-06-11T12:30:58.367Z,22.59
2023-06-11T12:34:00.870Z,22.82
2023-06-11T12:37:03.619Z,22.57
2023-06-11T12:40:06.837Z,22.60
2023-06-11T12:43:09.277Z,22.77
2023-06-11T12:46:11.803Z,22.61
2023-06-11T12:49:14.561Z,22.55
2023-06-11T12:52:17.225Z,22.66
2023-06-11T12:55:20.329Z,22.64
2023-06-11T12:58:23.069Z,22.50
2023-06-11T13:01:25.536Z,22.54
2023-06-11T13:04:28.147Z,22.53
2023-06-11T13:07:30.692Z,22.51
2023-06-11T13:10:33.138Z,22.52
2023-06-11T13:13:35.576Z,22.55
2023-06-11T13:16:38.044Z,22.54
2023-06-11T13:19:40.727Z,22.50
2023-06-11T13:22:43.254Z,22.49
2023-06-11T13:25:48.279Z,22.71
2023-06-11T13:28:51.586Z,22.57
2023-06-11T13:31:54.408Z,22.47
2023-06-11T13:34:57.082Z,22.55
2023-06-11T13:37:59.730Z,22.46
2023-06-11T13:41:02.484Z,22.50
2023-06-11T13:44:08.291Z,22.44
2023-06-11T13:47:11.007Z,22.57
2023-06-11T13:50:13.839Z,22.45
2023-06-11T13:53:16.758Z,22.45
2023-06-11T13:56:19.588Z,22.43
2023-06-11T13:59:22.799Z,22.54
2023-06-11T14:02:25.436Z,22.65
2023-06-11T14:05:28.066Z,22.54
2023-06-11T14:08:30.856Z,22.45
2023-06-11T14:11:33.404Z,22.37
2023-06-11T14:14:35.910Z,22.42
2023-06-11T14:17:43.804Z,22.41
2023-06-11T14:20:46.387Z,22.35
2023-06-11T14:23:48.958Z,22.41
2023-06-11T14:26:52.372Z,22.53
2023-06-11T14:29:54.806Z,22.42
2023-06-11T14:32:57.451Z,22.45
2023-06-11T14:36:04.476Z,22.45
2023-06-11T14:39:07.165Z,22.32
2023-06-11T14:42:09.672Z,22.34
2023-06-11T14:45:12.078Z,22.44
2023-06-11T14:48:14.657Z,22.43
2023-06-11T14:51:17.347Z,22.43
2023-06-11T14:54:19.975Z,22.24
2023-06-11T14:57:26.011Z,22.29
2023-06-11T15:00:28.856Z,22.52
2023-06-11T15:03:31.392Z,22.43
2023-06-11T15:06:34.763Z,22.33
2023-06-11T15:09:37.678Z,22.52
2023-06-11T15:12:40.201Z,22.32
2023-06-11T15:15:42.643Z,22.51
2023-06-11T15:18:45.115Z,22.27
2023-06-11T15:21:47.848Z,22.32
2023-06-11T15:24:50.513Z,22.39
2023-06-11T15:27:52.979Z,22.30
2023-06-11T15:30:55.644Z,22.50
2023-06-11T15:33:58.075Z,22.27
2023-06-11T15:37:00.523Z,22.44
2023-06-11T15:40:03.127Z,22.42
2023-06-11T15:43:06.575Z,22.22
2023-06-11T15:46:08.984Z,22.33
2023-06-11T15:49:11.434Z,22.43
2023-06-11T15:52:14.110Z,22.31
2023-06-11T15:55:16.988Z,22.26
2023-06-11T15:58:19.844Z,22.24
2023-06-11T16:01:22.520Z,22.29
2023-06-11T16:04:25.155Z,22.48
2023-06-11T16:07:27.658Z,22.29
2023-06-11T16:10:30.146Z,22.24
2023-06-11T16:13:33.786Z,22.35
2023-06-11T16:16:36.231Z,22.27
2023-06-11T16:19:38.755Z,22.23
2023-06-11T16:22:41.405Z,22.35
2023-06-11T16:25:45.879Z,22.25
2023-06-11T16:28:49.456Z,22.37
2023-06-11T16:31:52.069Z,22.29
2023-06-11T16:34:54.540Z,22.24
2023-06-11T16:37:56.968Z,22.22
2023-06-11T16:40:59.474Z,22.22
2023-06-11T16:44:01.959Z,22.20
2023-06-11T16:47:04.787Z,22.20
2023-06-11T16:50:07.791Z,22.37
2023-06-11T16:53:10.276Z,22.24
2023-06-11T16:56:12.996Z,22.17
2023-06-11T16:59:15.480Z,22.11
2023-06-11T17:02:17.971Z,22.20
2023-06-11T17:05:20.484Z,22.15
2023-06-11T17:08:22.927Z,22.21
2023-06-11T17:11:26.931Z,22.11
2023-06-11T17:14:29.456Z,22.11
2023-06-11T17:17:32.083Z,22.35
2023-06-11T17:20:35.357Z,22.11
2023-06-11T17:23:37.988Z,22.34
2023-06-11T17:26:42.767Z,22.24
2023-06-11T17:29:45.416Z,22.33
2023-06-11T17:32:48.043Z,22.30
2023-06-11T17:35:52.801Z,22.32
2023-06-11T17:38:55.236Z,22.17
2023-06-11T17:41:57.629Z,22.26
2023-06-11T17:45:00.179Z,22.20
2023-06-11T17:48:03.012Z,21.97
2023-06-11T17:51:05.536Z,22.26
2023-06-11T17:54:07.937Z,22.19
2023-06-11T17:57:11.564Z,22.09
2023-06-11T18:00:15.775Z,22.10
2023-06-11T18:03:18.224Z,22.04
2023-06-11T18:06:20.742Z,22.08
2023-06-11T18:09:23.179Z,22.07
2023-06-11T18:12:25.615Z,22.25
2023-06-11T18:15:34.217Z,22.10
2023-06-11T18:18:37.602Z,22.23
2023-06-11T18:21:40.275Z,22.22
2023-06-11T18:24:42.939Z,22.07
2023-06-11T18:27:45.384Z,22.02
2023-06-11T18:30:47.811Z,22.20
2023-06-11T18:33:50.333Z,21.90
2023-06-11T18:36:52.849Z,22.04
2023-06-11T18:39:55.303Z,22.14
2023-06-11T18:42:57.705Z,21.91
2023-06-11T18:46:00.308Z,21.92
2023-06-11T18:49:02.908Z,21.94
2023-06-11T18:52:07.308Z,21.95
2023-06-11T18:55:10.300Z,22.08
2023-06-11T18:58:12.798Z,21.89
2023-06-11T19:01:15.477Z,21.76
2023-06-11T19:04:22.961Z,21.79
2023-06-11T19:07:26.074Z,21.93
2023-06-11T19:10:28.577Z,21.88
2023-06-11T19:13:31.056Z,21.96
2023-06-11T19:16:33.665Z,21.70
2023-06-11T19:19:36.418Z,21.84
2023-06-11T19:22:38.910Z,21.73
2023-06-11T19:25:41.774Z,21.67
2023-06-11T19:28:44.246Z,21.89
2023-06-11T19:31:47.588Z,21.66
2023-06-11T19:34:50.052Z,21.66
2023-06-11T19:37:52.638Z,21.76
2023-06-11T19:40:55.154Z,21.59
2023-06-11T19:43:58.225Z,21.54
2023-06-11T19:47:00.842Z,21.81
2023-06-11T19:50:06.742Z,21.58
2023-06-11T19:53:09.207Z,21.58
2023-06-11T19:56:15.717Z,21.74
2023-06-11T19:59:20.298Z,21.46
2023-06-11T20:02:23.377Z,21.62
2023-06-11T20:05:26.960Z,21.63
2023-06-11T20:08:29.582Z,21.59
2023-06-11T20:11:32.080Z,21.45
2023-06-11T20:14:36.627Z,21.53
2023-06-11T20:17:39.371Z,21.39
2023-06-11T20:20:43.297Z,21.48
2023-06-11T20:23:47.808Z,21.45
2023-06-11T20:26:50.237Z,21.43
2023-06-11T20:29:52.720Z,21.38
2023-06-11T20:32:55.223Z,21.33
2023-06-11T20:35:57.767Z,21.31
2023-06-11T20:39:00.232Z,21.29
2023-06-11T20:42:02.689Z,21.28
2023-06-11T20:45:05.771Z,21.36
2023-06-11T20:48:08.503Z,21.29
2023-06-11T20:51:10.999Z,21.48
2023-06-11T20:54:13.659Z,21.23
2023-06-11T20:57:16.050Z,21.17
2023-06-11T21:00:18.657Z,21.23
2023-06-11T21:03:21.140Z,21.40
2023-06-11T21:06:23.812Z,21.33
2023-06-11T21:09:26.314Z,21.11
2023-06-11T21:12:30.257Z,21.24
2023-06-11T21:15:32.899Z,21.27
2023-06-11T21:18:35.390Z,21.14
2023-06-11T21:21:38.008Z,21.20
2023-06-11T21:24:40.555Z,21.12
2023-06-11T21:27:43.883Z,21.27
2023-06-11T21:30:46.835Z,21.31
2023-06-11T21:33:49.257Z,21.22
2023-06-11T21:36:51.693Z,21.07
2023-06-11T21:39:55.270Z,21.03
2023-06-11T21:42:58.354Z,21.23
2023-06-11T21:46:00.897Z,21.09
2023-06-11T21:49:03.312Z,21.07
2023-06-11T21:52:06.945Z,20.94
2023-06-11T21:55:09.596Z,21.03
2023-06-11T21:58:12.526Z,21.20
2023-06-11T22:01:15.130Z,21.02
2023-06-11T22:04:18.970Z,20.96
2023-06-11T22:07:22.492Z,20.95
2023-06-11T22:10:25.629Z,20.94
2023-06-11T22:13:30.976Z,20.94
2023-06-11T22:16:36.255Z,21.00
2023-06-11T22:19:39.840Z,21.15
2023-06-11T22:22:43.841Z,20.95
2023-06-11T22:25:46.281Z,21.06
2023-06-11T22:28:48.810Z,20.90
2023-06-11T22:31:51.239Z,21.02
2023-06-11T22:34:53.882Z,21.10
2023-06-11T22:37:56.260Z,20.97
2023-06-11T22:40:58.744Z,20.89
2023-06-11T22:44:01.146Z,20.79
2023-06-11T22:47:04.072Z,20.82
2023-06-11T22:50:07.389Z,20.87
2023-06-11T22:53:14.986Z,20.84
2023-06-11T22:56:17.496Z,20.95
2023-06-11T22:59:19.896Z,20.79
2023-06-11T23:02:22.488Z,21.02
2023-06-11T23:05:24.951Z,21.01
2023-06-11T23:08:27.388Z,20.80
2023-06-11T23:11:29.800Z,21.00
2023-06-11T23:14:32.225Z,20.99
2023-06-11T23:17:34.744Z,20.72
2023-06-11T23:20:37.773Z,20.92
2023-06-11T23:23:42.588Z,20.63
2023-06-11T23:26:46.099Z,20.82
2023-06-11T23:29:49.389Z,20.78
2023-06-11T23:32:52.295Z,20.82
2023-06-11T23:35:54.750Z,20.78
2023-06-11T23:38:58.150Z,20.73
2023-06-11T23:42:00.583Z,20.64
2023-06-11T23:45:03.525Z,20.72
2023-06-11T23:48:06.224Z,20.84
2023-06-11T23:51:10.174Z,20.89
2023-06-11T23:54:12.650Z,20.60
2023-06-11T23:57:15.123Z,20.74
